Time;durP1;ratioP1;P1;durP2;ratioP2;P2;SDS_P1;SDS_P2;PMS_P1;PMS_P2;Temp;Humidity;BMP_temperature;BMP_pressure;BME280_temperature;BME280_humidity;BME280_pressure;Samples;Min_cycle;Max_cycle;Signal;HPM_P1;HPM_P2
2023/03/22 00:01:45;;;;;;;2.90;2.10;;;;;;;9.85;100.00;97948.25;5074044;28;20234;-72
2023/03/22 00:04:11;;;;;;;3.63;2.37;;;;;;;9.78;100.00;97948.28;5074112;28;20214;-73
2023/03/22 00:06:37;;;;;;;3.63;2.10;;;;;;;9.81;100.00;97947.06;5074478;28;20215;-73
2023/03/22 00:09:04;;;;;;;2.43;2.13;;;;;;;9.80;100.00;97934.81;5073756;28;20216;-73
2023/03/22 00:11:31;;;;;;;2.77;1.87;;;;;;;9.79;100.00;97943.81;5074044;28;20208;-73
2023/03/22 00:13:57;;;;;;;3.87;2.20;;;;;;;9.77;100.00;97941.38;5073989;28;20224;-72
2023/03/22 00:16:24;;;;;;;3.23;1.67;;;;;;;9.79;100.00;97938.50;5073755;28;20219;-72
2023/03/22 00:18:50;;;;;;;2.67;1.97;;;;;;;9.79;100.00;97946.47;5073970;28;20201;-72
2023/03/22 00:21:17;;;;;;;4.10;2.10;;;;;;;9.81;100.00;97939.91;5073825;28;20231;-73
2023/03/22 00:23:44;;;;;;;2.30;2.10;;;;;;;9.85;100.00;97940.28;5073850;28;20251;-73
2023/03/22 00:26:13;;;;;;;5.00;2.03;;;;;;;9.87;100.00;97930.28;5074415;28;20204;-72
2023/03/22 00:28:39;;;;;;;1.80;1.70;;;;;;;9.92;100.00;97927.78;5073832;28;20205;-73
2023/03/22 00:31:06;;;;;;;2.53;2.00;;;;;;;9.90;100.00;97925.34;5073836;28;20211;-72
2023/03/22 00:33:35;;;;;;;2.50;2.27;;;;;;;9.85;100.00;97933.13;5073346;28;20240;-73
2023/03/22 00:36:08;;;;;;;2.30;2.10;;;;;;;9.83;100.00;97924.56;5073686;28;20201;-72
2023/03/22 00:38:37;;;;;;;3.03;2.10;;;;;;;9.85;100.00;97927.84;5073460;28;20624;-72
2023/03/22 00:41:14;;;;;;;4.73;2.70;;;;;;;9.83;100.00;97929.88;5073617;28;20228;-72
2023/03/22 00:43:41;;;;;;;3.93;2.70;;;;;;;9.78;100.00;97934.22;5073648;28;20285;-72
2023/03/22 00:46:09;;;;;;;3.37;2.33;;;;;;;9.77;100.00;97935.25;5073688;28;20208;-73
2023/03/22 00:48:35;;;;;;;4.43;2.67;;;;;;;9.77;100.00;97933.41;5073621;28;20204;-73
2023/03/22 00:51:03;;;;;;;2.90;2.27;;;;;;;9.74;100.00;97925.06;5073553;28;20205;-72
2023/03/22 00:53:31;;;;;;;3.30;2.40;;;;;;;9.72;100.00;97919.97;5073518;28;20228;-72
2023/03/22 00:55:58;;;;;;;3.17;2.50;;;;;;;9.73;100.00;97916.28;5073585;28;20296;-73
2023/03/22 00:58:25;;;;;;;7.00;3.20;;;;;;;9.71;100.00;97909.56;5073384;28;20227;-73
2023/03/22 01:00:51;;;;;;;2.60;2.40;;;;;;;9.72;100.00;97909.34;5073384;28;20230;-72
2023/03/22 01:03:18;;;;;;;3.87;2.50;;;;;;;9.72;100.00;97911.19;5073404;28;20231;-72
2023/03/22 01:05:45;;;;;;;5.50;2.70;;;;;;;9.82;100.00;97909.66;5073473;28;20200;-72
2023/03/22 01:08:13;;;;;;;2.90;2.60;;;;;;;9.82;100.00;97916.84;5073617;28;20262;-72
2023/03/22 01:10:42;;;;;;;3.47;2.67;;;;;;;9.80;100.00;97897.66;5073398;28;20561;-72
2023/03/22 01:13:09;;;;;;;5.13;2.40;;;;;;;9.80;100.00;97897.66;5073278;28;20232;-73
2023/03/22 01:15:36;;;;;;;3.97;2.50;;;;;;;9.81;100.00;97899.25;5073375;28;20342;-73
2023/03/22 01:18:03;;;;;;;4.27;2.70;;;;;;;9.71;100.00;97893.63;5073016;28;20691;-73
2023/03/22 01:20:29;;;;;;;3.10;2.47;;;;;;;9.65;100.00;97890.00;5072948;28;20231;-72
2023/03/22 01:22:56;;;;;;;3.87;2.70;;;;;;;9.61;100.00;97882.69;5073179;28;20228;-72
2023/03/22 01:25:22;;;;;;;3.10;2.80;;;;;;;9.56;100.00;97882.53;5073445;28;20568;-72
2023/03/22 01:27:49;;;;;;;3.03;2.73;;;;;;;9.55;100.00;97875.63;5073351;28;20231;-72
2023/03/22 01:30:15;;;;;;;3.87;2.53;;;;;;;9.54;100.00;97881.94;5077231;28;20200;-73
2023/03/22 01:32:41;;;;;;;4.63;2.90;;;;;;;9.51;100.00;97882.38;5076882;28;20238;-72
2023/03/22 01:35:09;;;;;;;4.50;2.73;;;;;;;9.35;100.00;97872.28;5077098;28;20205;-72
2023/03/22 01:37:35;;;;;;;3.40;2.73;;;;;;;9.29;100.00;97867.84;5076812;28;20216;-73
2023/03/22 01:40:02;;;;;;;4.87;2.70;;;;;;;9.24;100.00;97865.03;5076971;28;20211;-72
2023/03/22 01:42:28;;;;;;;4.60;2.33;;;;;;;9.34;100.00;97865.34;5076930;28;20220;-72
2023/03/22 01:45:13;;;;;;;3.20;2.90;;;;;;;9.31;100.00;97863.94;5076917;28;20208;-73
2023/03/22 01:47:51;;;;;;;4.13;3.07;;;;;;;9.34;100.00;97863.53;5076916;28;20205;-73
2023/03/22 01:50:19;;;;;;;6.63;2.90;;;;;;;9.22;100.00;97862.59;5076847;28;20185;-72
2023/03/22 01:52:45;;;;;;;3.23;2.70;;;;;;;9.21;100.00;97862.81;5076697;28;20232;-73
2023/03/22 01:55:12;;;;;;;3.63;2.70;;;;;;;9.20;100.00;97869.13;5076435;28;20790;-73
2023/03/22 01:57:41;;;;;;;2.93;2.50;;;;;;;9.15;100.00;97868.97;5076390;28;20690;-72
2023/03/22 02:00:14;;;;;;;2.90;2.37;;;;;;;9.09;100.00;97867.19;5058569;28;20208;-72
2023/03/22 02:02:41;;;;;;;3.80;2.50;;;;;;;9.04;100.00;97864.34;5076580;28;20225;-72
2023/03/22 02:05:08;;;;;;;6.47;3.20;;;;;;;8.95;100.00;97863.78;5076547;28;20216;-72
2023/03/22 02:07:37;;;;;;;3.53;2.40;;;;;;;8.89;100.00;97864.66;5076168;28;20660;-72
2023/03/22 02:10:03;;;;;;;3.53;2.83;;;;;;;8.89;100.00;97861.16;5076470;28;20208;-72
2023/03/22 02:13:07;;;;;;;2.83;2.50;;;;;;;8.85;100.00;97857.31;5076566;28;20228;-72
2023/03/22 02:15:42;;;;;;;4.57;2.80;;;;;;;8.85;100.00;97850.19;5076337;28;20208;-72
2023/03/22 02:18:30;;;;;;;2.93;2.30;;;;;;;8.83;100.00;97846.13;5075798;28;20569;-72
2023/03/22 02:21:24;;;;;;;3.10;2.77;;;;;;;8.82;100.00;97844.50;5076742;28;20208;-72
2023/03/22 02:24:22;;;;;;;3.90;2.53;;;;;;;8.83;100.00;97851.44;5076141;28;20225;-72
2023/03/22 02:27:08;;;;;;;2.83;2.40;;;;;;;8.82;100.00;97844.50;5075874;28;20238;-72
2023/03/22 02:29:34;;;;;;;2.37;2.17;;;;;;;8.76;100.00;97840.03;5075704;28;20553;-72
2023/03/22 02:32:25;;;;;;;4.93;2.47;;;;;;;8.78;100.00;97833.50;5075558;28;20228;-72
2023/03/22 02:35:09;;;;;;;5.40;2.73;;;;;;;8.77;100.00;97831.88;5075970;28;20204;-72
2023/03/22 02:38:00;;;;;;;4.47;3.30;;;;;;;8.73;100.00;97829.88;5057922;28;20193;-72
2023/03/22 02:40:35;;;;;;;3.90;2.87;;;;;;;8.69;100.00;97829.47;5075364;28;20188;-72
2023/03/22 02:43:55;;;;;;;3.77;2.63;;;;;;;8.67;100.00;97826.22;5075398;28;20224;-72
2023/03/22 02:46:21;;;;;;;2.80;2.50;;;;;;;8.69;100.00;97833.97;5021022;28;20652;-72
2023/03/22 02:48:57;;;;;;;4.70;2.93;;;;;;;8.71;100.00;97843.34;5075642;28;20212;-72
2023/03/22 02:51:36;;;;;;;3.37;2.77;;;;;;;8.71;100.00;97839.88;5075756;28;20189;-72
2023/03/22 02:54:10;;;;;;;4.00;2.90;;;;;;;8.63;100.00;97835.63;5075462;28;20228;-72
2023/03/22 02:57:15;;;;;;;5.30;2.80;;;;;;;8.62;100.00;97834.00;5075480;28;20200;-72
2023/03/22 02:59:43;;;;;;;4.47;2.97;;;;;;;8.63;100.00;97827.69;5061043;28;20189;-72
2023/03/22 03:02:16;;;;;;;4.47;2.40;;;;;;;8.52;100.00;97827.53;5075191;28;20311;-72
2023/03/22 03:04:46;;;;;;;3.73;2.60;;;;;;;8.48;100.00;97827.16;5075192;28;20632;-72
2023/03/22 03:07:16;;;;;;;4.63;2.63;;;;;;;8.51;100.00;97839.16;5057826;28;20546;-72
2023/03/22 03:09:43;;;;;;;4.00;2.53;;;;;;;8.46;100.00;97831.84;5075288;28;20205;-72
2023/03/22 03:12:18;;;;;;;2.60;2.40;;;;;;;8.46;100.00;97831.84;5075229;28;20217;-72
2023/03/22 03:14:44;;;;;;;2.90;2.50;;;;;;;8.44;100.00;97835.72;5075204;28;20188;-72
2023/03/22 03:17:37;;;;;;;3.23;2.50;;;;;;;8.41;100.00;97836.94;5075212;28;20207;-72
2023/03/22 03:20:23;;;;;;;2.90;2.70;;;;;;;8.43;100.00;97839.41;5057925;28;20187;-72
2023/03/22 03:23:18;;;;;;;5.00;2.70;;;;;;;8.40;100.00;97832.69;5074977;28;20224;-72
2023/03/22 03:25:56;;;;;;;4.33;2.40;;;;;;;8.32;100.00;97837.41;5050652;28;20216;-72
2023/03/22 03:28:37;;;;;;;4.23;3.10;;;;;;;8.27;100.00;97834.56;5075014;28;20189;-72
2023/03/22 03:31:16;;;;;;;3.50;2.47;;;;;;;8.24;100.00;97835.78;5074930;28;20185;-72
2023/03/22 03:33:58;;;;;;;4.23;2.60;;;;;;;8.24;100.00;97829.69;5074358;28;20239;-72
2023/03/22 03:36:26;;;;;;;4.30;2.63;;;;;;;8.20;100.00;97839.88;5074687;28;20192;-72
2023/03/22 03:38:54;;;;;;;3.73;3.07;;;;;;;8.19;100.00;97838.22;5056763;28;20207;-72
2023/03/22 03:41:25;;;;;;;3.60;2.70;;;;;;;8.15;100.00;97842.31;5074355;28;20266;-72
2023/03/22 03:43:54;;;;;;;3.73;2.73;;;;;;;8.17;100.00;97834.16;5074440;28;20236;-72
2023/03/22 03:46:21;;;;;;;4.83;2.83;;;;;;;8.15;100.00;97836.22;5074148;28;20205;-73
2023/03/22 03:48:50;;;;;;;3.67;2.90;;;;;;;8.16;100.00;97835.19;5074333;28;20207;-73
2023/03/22 03:51:16;;;;;;;3.27;2.97;;;;;;;8.08;100.00;97836.22;5073721;28;20287;-72
2023/03/22 03:53:43;;;;;;;3.00;2.70;;;;;;;8.13;100.00;97841.72;5074093;28;20229;-73
2023/03/22 03:56:10;;;;;;;3.53;2.90;;;;;;;8.07;100.00;97841.72;5074934;28;20219;-73
2023/03/22 03:58:36;;;;;;;5.23;2.90;;;;;;;8.00;100.00;97835.63;5074355;28;20299;-73
2023/03/22 04:01:03;;;;;;;4.33;3.40;;;;;;;8.03;100.00;97848.47;5074257;28;20224;-73
2023/03/22 04:03:30;;;;;;;6.37;3.37;;;;;;;8.04;100.00;97842.97;5074202;28;20282;-73
2023/03/22 04:05:58;;;;;;;6.23;3.10;;;;;;;8.01;100.00;97842.56;5074198;28;20211;-73
2023/03/22 04:08:25;;;;;;;5.53;3.50;;;;;;;8.03;100.00;97843.16;5074189;28;20296;-73
2023/03/22 04:10:52;;;;;;;4.80;3.27;;;;;;;7.98;100.00;97838.50;5074111;28;20215;-73
2023/03/22 04:13:20;;;;;;;5.70;3.47;;;;;;;7.96;100.00;97843.19;5074052;28;20228;-72
2023/03/22 04:15:47;;;;;;;3.53;3.23;;;;;;;7.89;100.00;97842.41;5074059;28;20204;-73
2023/03/22 04:18:14;;;;;;;5.53;3.40;;;;;;;7.80;100.00;97841.00;5073974;28;20578;-72
2023/03/22 04:20:40;;;;;;;5.37;3.63;;;;;;;7.76;100.00;97837.13;5073883;28;20201;-73
2023/03/22 04:23:09;;;;;;;5.50;3.60;;;;;;;7.77;100.00;97837.94;5074141;28;20224;-73
2023/03/22 04:25:37;;;;;;;4.20;3.30;;;;;;;7.73;100.00;97844.63;5073876;28;20596;-73
2023/03/22 04:28:04;;;;;;;5.23;3.70;;;;;;;7.71;100.00;97836.09;5073798;28;20227;-73
2023/03/22 04:30:35;;;;;;;4.63;3.03;;;;;;;7.74;100.00;97827.78;5073464;28;20209;-73
2023/03/22 04:33:05;;;;;;;4.70;3.10;;;;;;;7.66;100.00;97825.34;5073248;28;20319;-73
2023/03/22 04:35:34;;;;;;;4.90;2.60;;;;;;;7.74;100.00;97823.28;5074007;28;20204;-73
2023/03/22 04:38:00;;;;;;;4.20;2.70;;;;;;;7.69;100.00;97819.63;5073337;28;20213;-73
2023/03/22 04:40:30;;;;;;;4.60;2.57;;;;;;;7.78;100.00;97819.19;5073687;28;20231;-72
2023/03/22 04:42:58;;;;;;;2.53;2.30;;;;;;;7.86;100.00;97816.34;5073752;28;20228;-72
2023/03/22 04:45:27;;;;;;;2.60;2.23;;;;;;;7.84;100.00;97820.22;5073543;28;20200;-73
2023/03/22 04:47:54;;;;;;;3.60;2.63;;;;;;;7.81;100.00;97820.63;5073439;28;20219;-73
2023/03/22 04:50:20;;;;;;;4.80;2.10;;;;;;;7.76;100.00;97821.25;5073493;28;20211;-72
2023/03/22 04:52:48;;;;;;;3.23;2.40;;;;;;;7.72;100.00;97819.22;5073669;28;20221;-72
2023/03/22 04:55:15;;;;;;;3.93;2.40;;;;;;;7.71;100.00;97813.13;5073440;28;20204;-72
2023/03/22 04:57:41;;;;;;;2.40;2.20;;;;;;;7.70;100.00;97808.03;5073119;28;20215;-72
2023/03/22 05:00:08;;;;;;;3.70;2.60;;;;;;;7.71;100.00;97810.47;5073016;28;20212;-72
2023/03/22 05:02:37;;;;;;;3.63;2.90;;;;;;;7.78;100.00;97795.38;5072293;28;20617;-73
2023/03/22 05:05:05;;;;;;;4.93;2.60;;;;;;;7.71;100.00;97793.78;5073144;28;20697;-73
2023/03/22 05:07:31;;;;;;;5.00;2.97;;;;;;;7.72;100.00;97792.75;5073021;28;20220;-73
2023/03/22 05:09:58;;;;;;;5.10;3.60;;;;;;;7.79;100.00;97786.41;5072967;28;20209;-73
2023/03/22 05:12:24;;;;;;;6.40;3.60;;;;;;;7.82;100.00;97791.31;5073142;28;20224;-73
2023/03/22 05:14:51;;;;;;;8.90;3.67;;;;;;;7.84;100.00;97791.09;5072913;28;20733;-72
2023/03/22 05:17:17;;;;;;;4.10;3.47;;;;;;;7.86;100.00;97786.41;5073831;28;20208;-73
2023/03/22 05:19:43;;;;;;;4.47;2.67;;;;;;;7.83;100.00;97790.28;5072703;28;20209;-72
2023/03/22 05:22:10;;;;;;;6.23;2.30;;;;;;;8.19;100.00;97792.41;5073049;28;20259;-72
2023/03/22 05:24:37;;;;;;;4.50;2.60;;;;;;;8.03;100.00;97793.69;5072651;28;20208;-72
2023/03/22 05:27:04;;;;;;;4.27;2.17;;;;;;;8.40;100.00;97792.94;5072977;28;20205;-72
2023/03/22 05:29:35;;;;;;;3.53;2.00;;;;;;;8.49;100.00;97794.34;5072937;28;20205;-72
2023/03/22 05:32:03;;;;;;;3.10;2.10;;;;;;;8.62;100.00;97793.44;5072446;28;20220;-72
2023/03/22 05:34:34;;;;;;;3.23;2.47;;;;;;;8.64;100.00;97794.06;5072438;28;20650;-72
2023/03/22 05:37:01;;;;;;;2.93;1.90;;;;;;;8.86;100.00;97800.63;5072894;28;20275;-72
2023/03/22 05:39:28;;;;;;;3.17;2.23;;;;;;;8.84;100.00;97800.03;5072821;28;20217;-73
2023/03/22 05:41:54;;;;;;;3.33;2.33;;;;;;;8.97;100.00;97799.94;5072540;28;20224;-72
2023/03/22 05:44:20;;;;;;;3.20;1.90;;;;;;;8.93;100.00;97793.44;5072639;28;20660;-73
2023/03/22 05:46:47;;;;;;;3.27;2.23;;;;;;;8.93;100.00;97796.09;5072140;28;20687;-73
2023/03/22 05:49:13;;;;;;;4.43;2.50;;;;;;;8.99;100.00;97792.56;5072220;28;20209;-73
2023/03/22 05:51:41;;;;;;;4.97;2.10;;;;;;;8.83;100.00;97801.84;5072510;28;20675;-72
2023/03/22 05:54:08;;;;;;;2.30;1.63;;;;;;;8.93;100.00;97804.06;5072073;28;20277;-73
2023/03/22 05:56:35;;;;;;;3.97;2.10;;;;;;;8.98;100.00;97806.88;5072147;28;20208;-73
2023/03/22 05:59:03;;;;;;;2.20;1.97;;;;;;;9.01;100.00;97804.59;5072193;28;20636;-73
2023/03/22 06:01:29;;;;;;;2.93;2.03;;;;;;;9.05;100.00;97810.31;5072434;28;20228;-72
2023/03/22 06:03:56;;;;;;;3.37;2.30;;;;;;;9.05;100.00;97808.44;5072326;28;20326;-73
2023/03/22 06:06:22;;;;;;;2.93;2.20;;;;;;;8.98;100.00;97814.81;5071949;28;20200;-73
2023/03/22 06:08:49;;;;;;;2.30;1.97;;;;;;;9.03;100.00;97809.69;5072481;28;20205;-72
2023/03/22 06:11:17;;;;;;;6.13;2.50;;;;;;;9.03;100.00;97815.00;5072253;28;20200;-72
2023/03/22 06:13:43;;;;;;;4.27;2.00;;;;;;;9.13;100.00;97816.13;5072443;28;20278;-73
2023/03/22 06:16:10;;;;;;;4.40;2.00;;;;;;;9.12;100.00;97811.88;5075960;28;20291;-73
2023/03/22 06:18:36;;;;;;;3.30;2.10;;;;;;;9.18;100.00;97812.81;5075807;28;20208;-72
2023/03/22 06:21:03;;;;;;;6.20;2.00;;;;;;;9.26;100.00;97817.88;5075505;28;20211;-73
2023/03/22 06:23:29;;;;;;;2.70;2.30;;;;;;;9.27;100.00;97820.31;5075746;28;20232;-73
2023/03/22 06:25:55;;;;;;;4.23;2.20;;;;;;;9.36;100.00;97823.50;5075586;28;20211;-73
2023/03/22 06:28:22;;;;;;;6.20;2.07;;;;;;;9.38;100.00;97830.25;5075966;28;20215;-73
2023/03/22 06:30:48;;;;;;;4.10;2.30;;;;;;;9.52;98.98;97837.06;5075863;28;20219;-72
2023/03/22 06:33:14;;;;;;;3.53;2.13;;;;;;;9.55;100.00;97831.28;5075195;28;20232;-72
2023/03/22 06:35:41;;;;;;;2.87;2.00;;;;;;;9.65;100.00;97836.13;5075321;28;20204;-72
2023/03/22 06:38:07;;;;;;;4.50;2.27;;;;;;;9.69;100.00;97824.03;5072355;28;20201;-72
2023/03/22 06:40:34;;;;;;;5.53;2.13;;;;;;;9.77;98.20;97834.38;5064084;28;20246;-74
2023/03/22 06:43:00;;;;;;;3.53;2.10;;;;;;;9.84;96.74;97835.13;5064406;28;20303;-72
2023/03/22 06:45:32;;;;;;;4.23;2.17;;;;;;;9.92;96.92;97834.84;5063045;28;20566;-73
2023/03/22 06:47:58;;;;;;;3.47;2.13;;;;;;;10.05;96.39;97840.06;5055460;28;20548;-72
2023/03/22 06:50:24;;;;;;;3.50;2.13;;;;;;;10.09;94.32;97842.03;5055245;28;20213;-72
2023/03/22 06:52:51;;;;;;;4.20;1.80;;;;;;;10.27;93.43;97838.59;5054862;28;20218;-72
2023/03/22 06:55:17;;;;;;;3.37;2.10;;;;;;;10.22;93.59;97844.53;5055127;28;20205;-72
2023/03/22 06:57:44;;;;;;;4.00;2.00;;;;;;;10.30;92.20;97838.94;5055500;28;20692;-72
2023/03/22 07:00:11;;;;;;;2.83;2.00;;;;;;;10.49;92.82;97835.22;5054999;28;20236;-72
2023/03/22 07:02:37;;;;;;;3.63;3.20;;;;;;;10.44;92.12;97835.09;5055115;28;20236;-71
2023/03/22 07:05:04;;;;;;;4.80;2.20;;;;;;;10.59;91.33;97832.06;5054939;28;20205;-72
2023/03/22 07:07:31;;;;;;;3.03;2.00;;;;;;;10.69;90.14;97841.09;5054788;28;20691;-72
2023/03/22 07:09:57;;;;;;;3.60;1.70;;;;;;;10.74;89.95;97835.94;5054838;28;20209;-72
2023/03/22 07:12:24;;;;;;;5.03;2.10;;;;;;;10.77;87.74;97840.00;5055012;28;20316;-73
2023/03/22 07:14:50;;;;;;;2.97;1.90;;;;;;;10.89;86.97;97838.16;5055140;28;20211;-72
2023/03/22 07:17:16;;;;;;;4.03;2.17;;;;;;;10.98;86.54;97842.13;5054718;28;20206;-72
2023/03/22 07:19:43;;;;;;;4.93;2.50;;;;;;;10.99;86.17;97846.41;5054906;28;20209;-72
2023/03/22 07:22:10;;;;;;;3.93;1.90;;;;;;;11.08;84.16;97839.72;5054253;28;20245;-72
2023/03/22 07:24:36;;;;;;;2.97;1.97;;;;;;;11.14;81.77;97836.97;5054323;28;20213;-72
2023/03/22 07:27:03;;;;;;;3.40;2.10;;;;;;;11.28;82.02;97824.28;5053270;28;20669;-73
2023/03/22 07:29:29;;;;;;;3.70;1.73;;;;;;;11.42;79.50;97833.69;5053678;28;20205;-72
2023/03/22 07:31:55;;;;;;;5.00;1.50;;;;;;;11.42;79.50;97828.38;5053821;28;20206;-72
2023/03/22 07:34:22;;;;;;;2.50;1.47;;;;;;;11.46;78.01;97837.50;5054681;28;20190;-72
2023/03/22 07:36:48;;;;;;;4.37;1.90;;;;;;;11.56;77.49;97831.59;5053657;28;20217;-72
2023/03/22 07:39:14;;;;;;;6.30;4.27;;;;;;;11.63;76.88;97833.19;5053883;28;20221;-72
2023/03/22 07:41:41;;;;;;;3.80;1.50;;;;;;;11.67;76.51;97833.50;5054351;28;20655;-72
2023/03/22 07:44:07;;;;;;;5.67;1.80;;;;;;;11.76;77.52;97832.13;5054433;28;20207;-72
2023/03/22 07:46:34;;;;;;;2.07;1.50;;;;;;;11.90;77.04;97836.19;5053814;28;20212;-72
2023/03/22 07:49:00;;;;;;;2.70;1.73;;;;;;;11.85;75.49;97826.19;5053521;28;20207;-72
2023/03/22 07:51:26;;;;;;;5.63;1.73;;;;;;;12.07;75.74;97831.78;5053956;28;20211;-72
2023/03/22 07:53:53;;;;;;;2.37;1.60;;;;;;;12.15;73.72;97834.06;5053811;28;20224;-72
2023/03/22 07:56:19;;;;;;;5.37;1.87;;;;;;;12.13;73.81;97836.97;5053792;28;20674;-72
2023/03/22 07:58:45;;;;;;;1.70;1.20;;;;;;;12.19;74.88;97840.53;5054098;28;20210;-72
2023/03/22 08:01:12;;;;;;;3.27;1.53;;;;;;;12.32;74.57;97830.44;5053938;28;20216;-72
2023/03/22 08:03:39;;;;;;;3.33;1.40;;;;;;;12.44;73.52;97830.44;5053216;28;20698;-71
2023/03/22 08:06:07;;;;;;;3.37;1.60;;;;;;;12.54;73.98;97838.63;5053495;28;20211;-71
2023/03/22 08:08:36;;;;;;;2.87;1.50;;;;;;;12.63;71.60;97835.34;5053888;28;20578;-71
2023/03/22 08:11:07;;;;;;;2.30;1.47;;;;;;;12.66;71.63;97828.75;5053545;28;20212;-71
2023/03/22 08:13:34;;;;;;;2.87;1.07;;;;;;;12.75;70.97;97833.44;5053644;28;20316;-71
2023/03/22 08:16:01;;;;;;;3.50;1.40;;;;;;;12.85;70.30;97832.84;5053614;28;20205;-71
2023/03/22 08:18:27;;;;;;;2.13;1.20;;;;;;;12.92;70.62;97836.97;5053390;28;20565;-71
2023/03/22 08:20:56;;;;;;;5.13;1.47;;;;;;;12.98;70.10;97832.59;5053816;28;20588;-71
2023/03/22 08:23:26;;;;;;;2.10;1.20;;;;;;;13.03;70.25;97830.00;5053692;28;20319;-71
2023/03/22 08:25:53;;;;;;;3.00;1.00;;;;;;;13.16;70.58;97827.03;5053295;28;20207;-71
2023/03/22 08:28:20;;;;;;;3.07;1.33;;;;;;;13.28;71.28;97833.09;5053421;28;20205;-71
2023/03/22 08:30:48;;;;;;;2.50;1.27;;;;;;;13.51;69.46;97825.75;5053224;28;20208;-71
2023/03/22 08:33:16;;;;;;;1.47;0.90;;;;;;;13.46;68.95;97822.19;5053050;28;20233;-71
2023/03/22 08:35:43;;;;;;;2.20;0.90;;;;;;;13.51;69.51;97823.09;5053292;28;20201;-71
2023/03/22 08:38:10;;;;;;;1.73;1.10;;;;;;;13.57;68.31;97821.31;5052839;28;20779;-71
2023/03/22 08:40:37;;;;;;;2.77;0.90;;;;;;;13.60;68.03;97823.47;5052777;28;20298;-71
2023/03/22 08:43:04;;;;;;;1.63;0.90;;;;;;;13.72;68.28;97824.22;5052734;28;20228;-72
2023/03/22 08:45:31;;;;;;;2.20;1.00;;;;;;;13.69;67.20;97825.50;5052675;28;20209;-72
2023/03/22 08:47:58;;;;;;;1.93;1.00;;;;;;;13.76;67.75;97817.34;5051251;28;20217;-72
2023/03/22 08:50:25;;;;;;;0.87;0.80;;;;;;;13.79;67.71;97824.88;5051137;28;20212;-72
2023/03/22 08:52:52;;;;;;;2.03;1.17;;;;;;;13.85;67.41;97821.22;5051421;28;20557;-72
2023/03/22 08:55:18;;;;;;;1.97;0.80;;;;;;;13.80;67.86;97816.59;5050807;28;20213;-71
2023/03/22 08:57:49;;;;;;;1.27;1.10;;;;;;;13.73;67.45;97821.31;5051285;28;20213;-71
2023/03/22 09:00:16;;;;;;;2.30;1.00;;;;;;;13.83;68.41;97810.75;5051328;28;20244;-71
2023/03/22 09:02:43;;;;;;;1.57;1.03;;;;;;;13.98;67.94;97816.31;5052048;28;20232;-71
2023/03/22 09:05:10;;;;;;;1.57;1.00;;;;;;;14.03;67.94;97820.94;5052853;28;20216;-72
2023/03/22 09:07:36;;;;;;;3.10;0.93;;;;;;;14.10;68.01;97814.34;5052609;28;20706;-71
2023/03/22 09:10:02;;;;;;;2.10;0.93;;;;;;;14.16;68.03;97807.22;5053006;28;20205;-71
2023/03/22 09:12:29;;;;;;;1.53;0.83;;;;;;;14.16;67.73;97813.34;5052910;28;20276;-70
2023/03/22 09:14:55;;;;;;;1.27;0.80;;;;;;;14.14;66.24;97809.31;5052920;28;20205;-72
2023/03/22 09:17:22;;;;;;;2.47;1.03;;;;;;;14.16;65.61;97805.34;5053207;28;20201;-71
2023/03/22 09:19:49;;;;;;;1.57;0.90;;;;;;;14.32;64.22;97799.19;5052698;28;20205;-71
2023/03/22 09:22:15;;;;;;;1.70;0.87;;;;;;;14.20;65.57;97786.97;5052584;28;20233;-71
2023/03/22 09:24:42;;;;;;;1.40;1.10;;;;;;;14.56;66.24;97800.53;5052574;28;20775;-71
2023/03/22 09:27:08;;;;;;;1.67;0.90;;;;;;;14.57;64.92;97804.81;5052613;28;20211;-71
2023/03/22 09:29:35;;;;;;;1.33;1.00;;;;;;;14.40;64.03;97793.41;5052608;28;20213;-71
2023/03/22 09:32:02;;;;;;;0.90;0.77;;;;;;;14.49;64.73;97789.22;5052746;28;20221;-71
2023/03/22 09:34:29;;;;;;;1.20;1.07;;;;;;;14.66;64.82;97794.50;5052802;28;20216;-71
2023/03/22 09:36:57;;;;;;;1.73;0.77;;;;;;;14.71;63.95;97797.22;5052589;28;20300;-71
2023/03/22 09:39:24;;;;;;;2.37;1.10;;;;;;;14.59;62.71;97788.53;5052843;28;20296;-71
2023/03/22 09:41:56;;;;;;;1.57;1.00;;;;;;;14.79;63.02;97794.13;5052681;28;20296;-72
2023/03/22 09:44:40;;;;;;;1.33;0.90;;;;;;;14.76;62.61;97783.91;5052830;28;20217;-71
2023/03/22 09:47:13;;;;;;;2.20;0.97;;;;;;;15.28;64.75;97777.72;5052449;28;20280;-71
2023/03/22 09:49:44;;;;;;;1.27;1.00;;;;;;;15.47;62.05;97786.22;5053901;28;20235;-72
2023/03/22 09:52:16;;;;;;;1.00;0.83;;;;;;;15.41;61.78;97785.34;5056225;28;20795;-71
2023/03/22 09:54:45;;;;;;;1.00;0.90;;;;;;;15.42;60.16;97776.25;5056392;28;20205;-72
2023/03/22 09:57:32;;;;;;;1.33;0.93;;;;;;;15.46;60.15;97776.53;5056456;28;20316;-71
2023/03/22 10:00:29;;;;;;;1.33;0.80;;;;;;;14.96;59.58;97778.75;5056944;28;20224;-71
2023/03/22 10:03:04;;;;;;;1.30;0.80;;;;;;;15.36;60.79;97763.88;5056796;28;20229;-71
2023/03/22 10:05:51;;;;;;;1.00;0.90;;;;;;;15.43;61.23;97761.00;5055869;28;20275;-72
2023/03/22 10:08:25;;;;;;;2.37;0.93;;;;;;;15.71;60.68;97745.38;5055728;28;20197;-73
2023/03/22 10:10:52;;;;;;;1.00;0.87;;;;;;;15.72;59.13;97743.50;5055186;28;20196;-72
2023/03/22 10:13:35;;;;;;;1.00;0.90;;;;;;;15.77;60.32;97738.16;5056064;28;20221;-71
2023/03/22 10:16:10;;;;;;;1.43;1.00;;;;;;;15.79;58.90;97742.19;5056199;28;20249;-71
2023/03/22 10:18:42;;;;;;;1.97;0.90;;;;;;;15.73;60.67;97737.06;5056110;28;20189;-71
2023/03/22 10:21:11;;;;;;;0.93;0.90;;;;;;;15.52;59.75;97743.38;5054966;28;20194;-71
2023/03/22 10:24:00;;;;;;;1.07;0.90;;;;;;;15.67;60.31;97736.25;5055673;28;20602;-71
2023/03/22 10:26:32;;;;;;;1.67;1.00;;;;;;;15.53;59.42;97740.44;5055688;28;20196;-71
2023/03/22 10:29:02;;;;;;;1.07;0.97;;;;;;;15.42;59.51;97733.38;5055886;28;20189;-71
2023/03/22 10:31:29;;;;;;;2.73;1.20;;;;;;;15.52;59.23;97741.47;5054638;28;20258;-71
2023/03/22 10:34:07;;;;;;;1.03;0.93;;;;;;;15.60;58.90;97724.94;5055334;28;20224;-71
2023/03/22 10:36:37;;;;;;;2.67;1.00;;;;;;;15.77;58.93;97728.25;5055348;28;20736;-71
2023/03/22 10:39:17;;;;;;;0.87;0.73;;;;;;;16.21;58.75;97720.69;5054488;28;20216;-71
2023/03/22 10:41:44;;;;;;;2.77;1.20;;;;;;;16.23;58.02;97726.59;5055391;28;20194;-71
2023/03/22 10:44:17;;;;;;;2.43;0.87;;;;;;;16.20;58.59;97729.81;5055016;28;20264;-71
2023/03/22 10:46:45;;;;;;;1.40;0.80;;;;;;;16.48;56.86;97719.50;5054140;28;20198;-71
2023/03/22 10:49:25;;;;;;;1.50;1.00;;;;;;;16.54;56.68;97707.69;5055434;28;20215;-72
2023/03/22 10:51:57;;;;;;;2.63;1.00;;;;;;;17.18;57.06;97716.88;5055185;28;20294;-71
2023/03/22 10:54:25;;;;;;;2.17;1.30;;;;;;;16.74;56.77;97715.78;5055458;28;20228;-71
2023/03/22 10:56:51;;;;;;;1.90;1.03;;;;;;;16.48;58.71;97714.13;5055423;28;20301;-71
2023/03/22 10:59:47;;;;;;;1.43;1.10;;;;;;;16.33;56.22;97711.34;5061989;28;20682;-71
2023/03/22 11:02:18;;;;;;;1.43;0.90;;;;;;;16.64;58.44;97698.88;5057930;28;20304;-71
2023/03/22 11:04:50;;;;;;;2.03;1.10;;;;;;;16.95;56.13;97695.13;5054895;28;20227;-71
2023/03/22 11:07:43;;;;;;;0.83;0.83;;;;;;;17.07;56.51;97696.50;5054942;28;20209;-71
2023/03/22 11:10:09;;;;;;;1.87;0.90;;;;;;;17.24;54.83;97693.53;5054720;28;20629;-71
2023/03/22 11:12:43;;;;;;;1.73;0.97;;;;;;;17.48;55.59;97694.59;5054635;28;20712;-71
2023/03/22 11:15:28;;;;;;;1.10;1.00;;;;;;;17.20;53.59;97695.91;5055374;28;20196;-72
2023/03/22 11:18:06;;;;;;;2.57;0.80;;;;;;;17.11;54.23;97692.19;5074836;28;20200;-72
2023/03/22 11:20:34;;;;;;;0.97;0.80;;;;;;;17.17;53.99;97692.97;5074889;28;20291;-72
2023/03/22 11:23:05;;;;;;;1.63;0.90;;;;;;;17.35;53.63;97679.81;5074682;28;20239;-71
2023/03/22 11:25:37;;;;;;;1.43;0.97;;;;;;;17.33;53.85;97683.84;5074387;28;20193;-71
2023/03/22 11:28:03;;;;;;;1.70;0.93;;;;;;;17.18;54.27;97676.59;5074892;28;20196;-72
2023/03/22 11:30:31;;;;;;;1.27;0.90;;;;;;;17.19;53.69;97672.81;5074850;28;20200;-72
2023/03/22 11:33:15;;;;;;;1.47;0.70;;;;;;;17.42;49.99;97666.91;5074628;28;20236;-72
2023/03/22 11:35:45;;;;;;;2.03;0.87;;;;;;;17.65;48.19;97662.84;5074578;28;20193;-71
2023/03/22 11:38:39;;;;;;;0.80;0.80;;;;;;;17.96;47.48;97665.16;5074255;28;20197;-70
2023/03/22 11:41:21;;;;;;;1.07;0.80;;;;;;;18.14;46.95;97661.84;5074520;28;20192;-70
2023/03/22 11:43:53;;;;;;;1.43;0.87;;;;;;;17.73;47.38;97646.94;5073601;28;20227;-71
2023/03/22 11:46:20;;;;;;;2.17;0.80;;;;;;;17.66;46.95;97654.53;5074963;28;20192;-70
2023/03/22 11:48:49;;;;;;;0.70;0.70;;;;;;;17.86;45.94;97651.75;5074294;28;20212;-71